Time;durP1;ratioP1;P1;durP2;ratioP2;P2;SDS_P1;SDS_P2;PMS_P1;PMS_P2;Temp;Humidity;BMP_temperature;BMP_pressure;BME280_temperature;BME280_humidity;BME280_pressure;Samples;Min_cycle;Max_cycle;Signal;HPM_P1;HPM_P2
2021/11/05 00:01:52;;;;;;;10.02;1.77;;;10.60;99.90;;;;;;4962625;28;20023;-85
2021/11/05 00:04:18;;;;;;;6.88;2.10;;;10.60;99.90;;;;;;4961626;28;20035;-84
2021/11/05 00:06:45;;;;;;;4.90;2.30;;;10.50;99.90;;;;;;4962227;28;20035;-86
2021/11/05 00:09:10;;;;;;;7.25;1.92;;;10.50;99.90;;;;;;4960251;28;20027;-83
2021/11/05 00:11:36;;;;;;;8.38;1.50;;;10.50;99.90;;;;;;4959735;28;20574;-87
2021/11/05 00:14:02;;;;;;;8.02;1.63;;;10.50;99.90;;;;;;4958210;29;20019;-85
2021/11/05 00:16:28;;;;;;;6.22;2.03;;;10.40;99.90;;;;;;4957035;28;20031;-86
2021/11/05 00:18:54;;;;;;;6.65;1.80;;;10.30;99.90;;;;;;4956577;28;20534;-84
2021/11/05 00:21:19;;;;;;;6.90;1.92;;;10.30;99.90;;;;;;4956436;28;20039;-85
2021/11/05 00:23:45;;;;;;;6.00;1.92;;;10.20;99.90;;;;;;4959942;28;20030;-85
2021/11/05 00:26:11;;;;;;;5.20;2.08;;;10.10;99.90;;;;;;4959755;28;20031;-85
2021/11/05 00:28:36;;;;;;;3.15;1.75;;;10.10;99.90;;;;;;4959092;29;20118;-85
2021/11/05 00:31:02;;;;;;;6.47;1.75;;;10.00;99.90;;;;;;4959029;29;20023;-84
2021/11/05 00:33:28;;;;;;;7.18;1.60;;;10.00;99.90;;;;;;4956482;29;20121;-84
2021/11/05 00:35:53;;;;;;;7.25;2.00;;;10.00;99.90;;;;;;4957786;29;20029;-85
2021/11/05 00:38:19;;;;;;;5.13;1.85;;;9.90;99.90;;;;;;4956780;29;20028;-84
2021/11/05 00:40:45;;;;;;;5.78;1.90;;;9.90;99.90;;;;;;4958113;28;20023;-85
2021/11/05 00:43:11;;;;;;;6.68;1.60;;;9.90;99.90;;;;;;4956062;28;20044;-84
2021/11/05 00:45:36;;;;;;;11.88;2.40;;;9.90;99.90;;;;;;4957521;28;20062;-85
2021/11/05 00:48:02;;;;;;;6.43;1.73;;;9.90;99.90;;;;;;4956928;28;20101;-85
2021/11/05 00:50:28;;;;;;;5.70;1.90;;;9.90;99.90;;;;;;4956704;28;20031;-85
2021/11/05 00:52:55;;;;;;;7.57;1.65;;;9.90;99.90;;;;;;4954770;29;20042;-85
2021/11/05 00:55:20;;;;;;;6.53;2.15;;;9.90;99.90;;;;;;4956554;28;20106;-86
2021/11/05 00:57:47;;;;;;;6.05;2.00;;;9.90;99.90;;;;;;4956772;28;20062;-86
2021/11/05 01:00:15;;;;;;;5.75;2.05;;;9.90;99.90;;;;;;4960248;28;20544;-84
2021/11/05 01:02:42;;;;;;;4.00;2.00;;;9.90;99.90;;;;;;4956680;28;20034;-86
2021/11/05 01:05:12;;;;;;;8.63;2.35;;;9.90;99.90;;;;;;4961017;28;20298;-86
2021/11/05 01:07:39;;;;;;;7.38;2.03;;;9.90;99.90;;;;;;4959942;28;20035;-86
2021/11/05 01:10:08;;;;;;;7.28;2.38;;;9.80;99.90;;;;;;4956480;29;20023;-85
2021/11/05 01:12:34;;;;;;;8.25;1.52;;;9.90;99.90;;;;;;4956477;28;20042;-84
2021/11/05 01:14:59;;;;;;;4.93;1.65;;;9.80;99.90;;;;;;4955150;28;20019;-84
2021/11/05 01:17:25;;;;;;;6.82;1.75;;;9.80;99.90;;;;;;4955560;28;20030;-84
2021/11/05 01:19:51;;;;;;;7.40;1.92;;;9.80;99.90;;;;;;4955842;28;20031;-85
2021/11/05 01:22:17;;;;;;;7.35;2.28;;;9.70;99.90;;;;;;4955053;28;20102;-83
2021/11/05 01:24:43;;;;;;;7.68;1.77;;;9.70;99.90;;;;;;4955982;28;20042;-84
2021/11/05 01:27:09;;;;;;;9.20;1.60;;;9.70;99.90;;;;;;4955706;28;20035;-84
2021/11/05 01:29:35;;;;;;;7.43;2.00;;;9.60;99.90;;;;;;4954638;29;20059;-85
2021/11/05 01:32:01;;;;;;;5.85;1.75;;;9.50;99.90;;;;;;4953358;29;20035;-85
2021/11/05 01:34:27;;;;;;;7.40;1.63;;;9.50;99.90;;;;;;4954458;29;20046;-84
2021/11/05 01:36:53;;;;;;;3.42;1.60;;;9.40;99.90;;;;;;4955729;28;20035;-86
2021/11/05 01:39:19;;;;;;;4.78;1.65;;;9.40;99.90;;;;;;4956252;28;20031;-87
2021/11/05 01:41:45;;;;;;;7.90;1.60;;;9.40;99.90;;;;;;4955600;28;20051;-87
2021/11/05 01:44:11;;;;;;;6.10;1.65;;;9.50;99.90;;;;;;4956126;28;20023;-87
2021/11/05 01:46:41;;;;;;;9.82;1.88;;;9.70;99.90;;;;;;4954366;29;20637;-85
2021/11/05 01:49:08;;;;;;;6.60;1.70;;;9.80;99.90;;;;;;4956304;29;20026;-87
2021/11/05 01:51:36;;;;;;;8.48;1.88;;;9.80;99.90;;;;;;4956102;28;20023;-87
2021/11/05 01:54:10;;;;;;;5.78;1.40;;;9.80;99.90;;;;;;4954950;29;20029;-87
2021/11/05 01:56:38;;;;;;;7.50;2.05;;;9.80;99.90;;;;;;4956044;29;20027;-86
2021/11/05 01:59:03;;;;;;;4.40;1.80;;;9.70;99.90;;;;;;4956179;28;20390;-87
2021/11/05 02:01:30;;;;;;;4.57;1.98;;;9.70;99.90;;;;;;4952901;28;20027;-87
2021/11/05 02:03:56;;;;;;;6.75;1.50;;;9.60;99.90;;;;;;4935681;29;20039;-88
2021/11/05 02:06:23;;;;;;;9.20;1.65;;;9.50;99.90;;;;;;4938785;28;20050;-88
2021/11/05 02:08:52;;;;;;;8.57;1.80;;;9.40;99.90;;;;;;4954730;29;20055;-88
2021/11/05 02:11:19;;;;;;;9.50;2.05;;;9.40;99.90;;;;;;4952725;29;20063;-87
2021/11/05 02:13:46;;;;;;;4.78;1.23;;;9.50;99.90;;;;;;4935073;29;20141;-86
2021/11/05 02:16:13;;;;;;;6.20;1.50;;;9.50;99.90;;;;;;4945560;29;20027;-85
2021/11/05 02:18:40;;;;;;;10.50;1.70;;;9.50;99.90;;;;;;4955706;28;20026;-87
2021/11/05 02:21:10;;;;;;;6.80;1.70;;;9.50;99.90;;;;;;4955548;28;20518;-86
2021/11/05 02:23:36;;;;;;;6.82;1.55;;;9.50;99.90;;;;;;4939584;29;20063;-87
2021/11/05 02:26:02;;;;;;;4.68;1.40;;;9.50;99.90;;;;;;4954436;28;20067;-87
2021/11/05 02:28:34;;;;;;;7.82;2.08;;;9.50;99.90;;;;;;4954493;28;20031;-87
2021/11/05 02:30:59;;;;;;;7.17;2.40;;;9.50;99.90;;;;;;4936169;29;20119;-87
2021/11/05 02:33:25;;;;;;;4.25;1.75;;;9.50;99.90;;;;;;4935652;29;20319;-87
2021/11/05 02:35:51;;;;;;;5.53;2.38;;;9.50;99.90;;;;;;4935479;29;20044;-88
2021/11/05 02:38:18;;;;;;;4.03;1.58;;;9.50;99.90;;;;;;4952231;28;20042;-87
2021/11/05 02:40:44;;;;;;;7.40;1.60;;;9.50;99.90;;;;;;4955563;28;20039;-87
2021/11/05 02:43:10;;;;;;;5.82;1.58;;;9.50;99.90;;;;;;4955036;28;20059;-87
2021/11/05 02:45:35;;;;;;;5.32;1.45;;;9.50;99.90;;;;;;4955096;28;20103;-86
2021/11/05 02:48:03;;;;;;;4.85;1.67;;;9.50;99.90;;;;;;4938799;29;20036;-87
2021/11/05 02:50:28;;;;;;;6.50;1.77;;;9.50;99.90;;;;;;4936193;29;20016;-86
2021/11/05 02:52:54;;;;;;;10.70;1.92;;;9.50;99.90;;;;;;4949489;29;20050;-86
2021/11/05 02:55:21;;;;;;;2.67;1.17;;;9.40;99.90;;;;;;4954031;28;20023;-86
2021/11/05 02:57:47;;;;;;;4.40;1.80;;;9.40;99.90;;;;;;4955306;28;20023;-87
2021/11/05 03:00:15;;;;;;;9.50;1.77;;;9.50;99.90;;;;;;4955597;28;20078;-87
2021/11/05 03:02:40;;;;;;;6.80;1.95;;;9.40;99.90;;;;;;4955568;28;20054;-88
2021/11/05 03:05:06;;;;;;;9.15;1.90;;;9.50;99.90;;;;;;4954267;29;20646;-88
2021/11/05 03:07:32;;;;;;;5.45;1.63;;;9.40;99.90;;;;;;4955315;28;20130;-87
2021/11/05 03:09:58;;;;;;;4.22;1.80;;;9.40;99.90;;;;;;4954214;29;20055;-87
2021/11/05 03:12:23;;;;;;;10.43;1.88;;;9.40;99.90;;;;;;4954272;28;20111;-86
2021/11/05 03:14:49;;;;;;;6.78;1.55;;;9.40;99.90;;;;;;4956301;28;20038;-87
2021/11/05 03:17:15;;;;;;;7.78;2.05;;;9.40;99.90;;;;;;4952968;28;20023;-87
2021/11/05 03:19:41;;;;;;;8.60;1.83;;;9.40;99.90;;;;;;4955038;29;20067;-87
2021/11/05 03:22:07;;;;;;;5.57;1.60;;;9.50;99.90;;;;;;4952174;28;20031;-86
2021/11/05 03:24:33;;;;;;;6.85;1.48;;;9.50;99.90;;;;;;4951369;28;20063;-85
2021/11/05 03:26:59;;;;;;;5.22;1.50;;;9.60;99.90;;;;;;4945612;29;20068;-87
2021/11/05 03:29:25;;;;;;;4.65;1.30;;;9.60;99.90;;;;;;4954942;29;20030;-86
2021/11/05 03:31:51;;;;;;;5.57;1.48;;;9.60;99.90;;;;;;4954121;28;20032;-87
2021/11/05 03:34:17;;;;;;;6.65;1.45;;;9.60;99.90;;;;;;4953973;28;20482;-87
2021/11/05 03:36:43;;;;;;;6.93;1.48;;;9.50;99.90;;;;;;4953648;29;20031;-88
2021/11/05 03:39:09;;;;;;;7.05;1.55;;;9.60;99.90;;;;;;4954175;28;20023;-84
2021/11/05 03:41:35;;;;;;;3.63;1.35;;;9.60;99.90;;;;;;4952491;28;20523;-83
2021/11/05 03:44:01;;;;;;;5.97;1.40;;;9.70;99.90;;;;;;4941209;28;20027;-84
2021/11/05 03:46:27;;;;;;;5.63;1.55;;;9.80;99.90;;;;;;4956494;28;20375;-82
2021/11/05 03:48:53;;;;;;;10.93;1.50;;;9.80;99.90;;;;;;4955804;29;20071;-82
2021/11/05 03:51:19;;;;;;;11.35;1.30;;;9.80;99.90;;;;;;4956296;28;20020;-82
2021/11/05 03:53:45;;;;;;;4.88;1.33;;;9.90;99.90;;;;;;4956964;28;20042;-83
2021/11/05 03:56:10;;;;;;;7.03;1.50;;;10.00;99.90;;;;;;4955214;28;20034;-83
2021/11/05 03:58:36;;;;;;;8.90;1.92;;;10.00;99.90;;;;;;4955527;28;20024;-83
2021/11/05 04:01:03;;;;;;;5.82;1.23;;;10.10;99.90;;;;;;4956902;28;20490;-83
2021/11/05 04:03:29;;;;;;;10.20;1.70;;;10.10;99.90;;;;;;4955751;28;20110;-80
2021/11/05 04:05:55;;;;;;;5.25;1.13;;;10.20;99.90;;;;;;4956075;28;20126;-81
2021/11/05 04:08:21;;;;;;;4.53;1.20;;;10.20;99.90;;;;;;4954591;28;20110;-80
2021/11/05 04:10:47;;;;;;;8.50;1.60;;;10.40;99.90;;;;;;4956194;28;20027;-80
2021/11/05 04:13:13;;;;;;;6.75;1.50;;;10.50;99.90;;;;;;4954606;28;20455;-81
2021/11/05 04:15:39;;;;;;;6.45;1.50;;;10.60;99.90;;;;;;4956204;28;20059;-80
2021/11/05 04:18:04;;;;;;;4.47;1.35;;;10.70;99.90;;;;;;4955861;28;20058;-81
2021/11/05 04:20:30;;;;;;;6.90;1.58;;;10.70;99.90;;;;;;4954808;29;20027;-81
2021/11/05 04:22:56;;;;;;;3.78;1.23;;;10.70;99.90;;;;;;4954497;29;20038;-81
2021/11/05 04:25:22;;;;;;;2.60;1.05;;;10.70;99.90;;;;;;4955834;28;20122;-80
2021/11/05 04:27:47;;;;;;;7.43;1.65;;;10.60;99.90;;;;;;4955315;28;20047;-79
2021/11/05 04:30:14;;;;;;;5.35;1.63;;;10.60;99.90;;;;;;4954676;28;20023;-81
2021/11/05 04:32:41;;;;;;;5.63;1.40;;;10.40;99.90;;;;;;4955557;28;20023;-82
2021/11/05 04:35:07;;;;;;;4.93;1.40;;;10.40;99.90;;;;;;4955851;28;20023;-81
2021/11/05 04:37:33;;;;;;;5.22;1.40;;;10.20;99.90;;;;;;4955781;28;20038;-82
2021/11/05 04:39:59;;;;;;;8.15;1.75;;;10.20;99.90;;;;;;4955942;28;20031;-80
2021/11/05 04:42:24;;;;;;;5.60;1.50;;;10.30;99.90;;;;;;4954098;28;20058;-81
2021/11/05 04:44:50;;;;;;;8.85;1.73;;;10.40;99.90;;;;;;4955673;28;20479;-81
2021/11/05 04:47:16;;;;;;;7.32;1.70;;;10.40;99.90;;;;;;4953799;29;20039;-82
2021/11/05 04:49:43;;;;;;;2.70;1.15;;;10.50;99.90;;;;;;4955635;28;20486;-81
2021/11/05 04:52:09;;;;;;;7.70;1.60;;;10.50;99.90;;;;;;4954982;28;20034;-82
2021/11/05 04:54:35;;;;;;;8.57;1.58;;;10.50;99.90;;;;;;4954042;29;20478;-80
2021/11/05 04:57:01;;;;;;;5.22;1.48;;;10.50;99.90;;;;;;4950500;28;20027;-80
2021/11/05 04:59:27;;;;;;;5.75;1.30;;;10.60;99.90;;;;;;4953510;28;20079;-80
2021/11/05 05:01:53;;;;;;;6.20;1.33;;;10.60;99.90;;;;;;4949962;28;20031;-81
2021/11/05 05:04:19;;;;;;;4.50;1.38;;;10.60;99.90;;;;;;4944605;28;20644;-80
2021/11/05 05:06:45;;;;;;;7.22;1.58;;;10.60;99.90;;;;;;4946857;29;20051;-81
2021/11/05 05:09:11;;;;;;;11.38;1.50;;;10.60;99.90;;;;;;4953449;29;20081;-82
2021/11/05 05:11:37;;;;;;;7.35;1.77;;;10.60;99.90;;;;;;4952841;29;20110;-82
2021/11/05 05:14:03;;;;;;;8.88;1.73;;;10.60;99.90;;;;;;4953879;28;20119;-83
2021/11/05 05:16:28;;;;;;;7.72;1.50;;;10.50;99.90;;;;;;4940685;29;20082;-82
2021/11/05 05:18:54;;;;;;;3.70;1.42;;;10.40;99.90;;;;;;4955133;28;20082;-82
2021/11/05 05:21:20;;;;;;;8.45;1.30;;;10.40;99.90;;;;;;4953836;29;20031;-82
2021/11/05 05:23:46;;;;;;;3.42;1.40;;;10.40;99.90;;;;;;4942388;28;20038;-83
2021/11/05 05:26:11;;;;;;;6.70;1.50;;;10.40;99.90;;;;;;4954515;29;20053;-81
2021/11/05 05:28:37;;;;;;;5.97;1.25;;;10.40;99.90;;;;;;4953971;28;20114;-83
2021/11/05 05:31:07;;;;;;;8.35;1.70;;;10.30;99.90;;;;;;4947936;29;20027;-82
2021/11/05 05:33:36;;;;;;;4.63;1.67;;;10.30;99.90;;;;;;4954278;29;20078;-82
2021/11/05 05:36:06;;;;;;;4.80;1.92;;;10.30;99.90;;;;;;4939167;29;20495;-83
2021/11/05 05:38:32;;;;;;;10.30;1.90;;;10.40;99.90;;;;;;4942961;29;20166;-83
2021/11/05 05:40:59;;;;;;;5.28;1.30;;;10.40;99.90;;;;;;4946370;29;20020;-83
2021/11/05 05:43:25;;;;;;;5.20;1.58;;;10.40;99.90;;;;;;4954694;28;20497;-82
2021/11/05 05:45:51;;;;;;;4.30;1.45;;;10.30;99.90;;;;;;4951034;28;20118;-85
2021/11/05 05:48:17;;;;;;;4.55;1.73;;;10.30;99.90;;;;;;4954987;28;20035;-82
2021/11/05 05:50:43;;;;;;;7.88;1.80;;;10.30;99.90;;;;;;4946494;29;20039;-81
2021/11/05 05:53:10;;;;;;;7.95;1.58;;;10.40;99.90;;;;;;4943079;29;20736;-83
2021/11/05 05:55:38;;;;;;;10.65;2.00;;;10.40;99.90;;;;;;4935287;29;20032;-83
2021/11/05 05:58:05;;;;;;;4.80;1.40;;;10.40;99.90;;;;;;4949787;29;20035;-83
2021/11/05 06:00:32;;;;;;;4.13;1.63;;;10.50;99.90;;;;;;4946943;29;20035;-83
2021/11/05 06:02:57;;;;;;;9.95;2.08;;;10.50;99.90;;;;;;4948291;29;20050;-82
2021/11/05 06:05:23;;;;;;;5.15;1.88;;;10.50;99.90;;;;;;4953145;29;20538;-83
2021/11/05 06:07:49;;;;;;;7.65;1.58;;;10.50;99.90;;;;;;4953418;28;20065;-83
2021/11/05 06:10:15;;;;;;;6.65;2.00;;;10.50;99.90;;;;;;4953021;29;20023;-84
2021/11/05 06:12:40;;;;;;;5.45;1.58;;;10.50;99.90;;;;;;4955603;28;20031;-83
2021/11/05 06:15:06;;;;;;;8.00;1.40;;;10.40;99.90;;;;;;4945621;28;20094;-82
2021/11/05 06:17:33;;;;;;;3.88;1.63;;;10.40;99.90;;;;;;4948465;29;20027;-82
2021/11/05 06:19:59;;;;;;;6.40;1.60;;;10.40;99.90;;;;;;4953714;28;20648;-82
2021/11/05 06:22:25;;;;;;;6.13;1.30;;;10.40;99.90;;;;;;4952924;28;20035;-83
2021/11/05 06:24:51;;;;;;;7.75;1.42;;;10.40;99.90;;;;;;4952886;29;20398;-83
2021/11/05 06:27:17;;;;;;;8.13;1.67;;;10.50;99.90;;;;;;4953852;28;20054;-84
2021/11/05 06:29:43;;;;;;;5.00;1.25;;;10.60;99.90;;;;;;4939759;28;20027;-82
2021/11/05 06:32:08;;;;;;;8.10;1.70;;;10.60;99.90;;;;;;4943401;29;20015;-84
2021/11/05 06:34:35;;;;;;;7.70;3.38;;;10.60;99.90;;;;;;4957433;28;20103;-85
2021/11/05 06:37:00;;;;;;;8.57;1.73;;;10.70;99.90;;;;;;4955422;28;20090;-82
2021/11/05 06:39:27;;;;;;;4.97;1.67;;;10.80;99.90;;;;;;4954523;28;20479;-83
2021/11/05 06:41:53;;;;;;;6.50;1.58;;;10.80;99.90;;;;;;4943231;29;20047;-84
2021/11/05 06:44:18;;;;;;;9.02;2.85;;;10.90;99.90;;;;;;4953932;28;20095;-84
2021/11/05 06:46:44;;;;;;;7.97;2.88;;;11.00;99.90;;;;;;4951071;29;20398;-82
2021/11/05 06:49:10;;;;;;;5.57;2.50;;;11.00;99.90;;;;;;4954087;28;20023;-82
2021/11/05 06:51:36;;;;;;;8.82;2.20;;;11.10;99.90;;;;;;4936232;29;20043;-83
2021/11/05 06:54:02;;;;;;;9.43;2.35;;;11.10;99.90;;;;;;4945017;29;20070;-80
2021/11/05 06:56:28;;;;;;;6.80;2.30;;;11.20;99.90;;;;;;4954603;29;20026;-85
2021/11/05 06:58:56;;;;;;;7.47;2.28;;;11.40;99.90;;;;;;4961314;28;20111;-88
2021/11/05 07:01:23;;;;;;;8.85;2.45;;;11.50;99.90;;;;;;4948981;28;20522;-85
2021/11/05 07:03:48;;;;;;;4.57;1.40;;;11.60;99.90;;;;;;4952601;29;20581;-82
2021/11/05 07:06:14;;;;;;;7.20;2.00;;;11.70;99.90;;;;;;4955762;28;20054;-84
2021/11/05 07:08:40;;;;;;;5.72;1.80;;;11.90;99.90;;;;;;4953715;29;20034;-84
2021/11/05 07:11:10;;;;;;;5.30;2.05;;;12.00;99.90;;;;;;4958781;28;20066;-88
2021/11/05 07:13:36;;;;;;;6.38;1.80;;;12.20;99.90;;;;;;4941134;29;20052;-88
2021/11/05 07:16:03;;;;;;;8.35;1.90;;;12.30;99.90;;;;;;4944853;29;20128;-88
2021/11/05 07:18:31;;;;;;;8.30;1.90;;;12.50;99.90;;;;;;4957651;28;20051;-89
2021/11/05 07:20:58;;;;;;;6.97;2.00;;;12.70;99.90;;;;;;4962995;29;20030;-86
2021/11/05 07:23:23;;;;;;;3.78;1.52;;;12.80;99.90;;;;;;4961863;29;20043;-87
2021/11/05 07:25:49;;;;;;;7.70;2.15;;;12.90;99.90;;;;;;4963957;28;20023;-88
2021/11/05 07:28:19;;;;;;;7.13;1.80;;;13.00;99.90;;;;;;4961540;28;20821;-86
2021/11/05 07:30:45;;;;;;;6.10;1.75;;;13.10;99.90;;;;;;4949342;29;20027;-87
2021/11/05 07:33:11;;;;;;;5.95;1.60;;;13.20;99.90;;;;;;4956692;29;20027;-88
2021/11/05 07:35:36;;;;;;;6.63;1.90;;;13.30;99.90;;;;;;4959893;28;20098;-86
2021/11/05 07:38:02;;;;;;;7.22;1.85;;;13.40;99.90;;;;;;4958921;29;20494;-88
2021/11/05 07:40:28;;;;;;;4.05;1.70;;;13.40;99.90;;;;;;4959634;28;20022;-88
2021/11/05 07:42:54;;;;;;;9.02;2.03;;;13.40;99.90;;;;;;4952345;28;20044;-88
2021/11/05 07:45:20;;;;;;;4.63;1.67;;;13.60;99.90;;;;;;4949150;29;20391;-88
2021/11/05 07:47:47;;;;;;;8.00;1.88;;;13.70;99.90;;;;;;4952995;29;20054;-87
2021/11/05 07:50:15;;;;;;;6.00;1.83;;;13.70;99.90;;;;;;4957207;28;20051;-87
2021/11/05 07:52:42;;;;;;;8.82;3.22;;;13.80;99.90;;;;;;4957168;29;20414;-88
2021/11/05 07:55:09;;;;;;;7.00;1.92;;;13.80;99.90;;;;;;4952178;29;20474;-88
2021/11/05 07:57:36;;;;;;;7.05;1.63;;;13.80;99.90;;;;;;4955745;29;20031;-89
2021/11/05 08:00:04;;;;;;;6.57;2.25;;;13.80;99.90;;;;;;4956346;29;20039;-89
2021/11/05 08:02:29;;;;;;;13.02;2.17;;;13.80;99.90;;;;;;4957038;29;20075;-87
2021/11/05 08:04:55;;;;;;;11.88;2.13;;;13.80;99.90;;;;;;4958709;28;20059;-87
2021/11/05 08:07:22;;;;;;;5.53;1.92;;;13.90;99.90;;;;;;4962451;29;20035;-88
2021/11/05 08:09:49;;;;;;;5.40;1.77;;;13.90;99.90;;;;;;4959951;28;20027;-87
2021/11/05 08:12:15;;;;;;;6.88;2.00;;;13.90;99.90;;;;;;4961952;28;20055;-87
2021/11/05 08:14:41;;;;;;;3.58;1.60;;;14.00;99.90;;;;;;4951083;29;20059;-87
2021/11/05 08:17:07;;;;;;;6.57;1.58;;;14.00;99.90;;;;;;4951519;29;20023;-86
2021/11/05 08:19:33;;;;;;;8.45;1.98;;;14.10;99.90;;;;;;4950192;29;20033;-87
2021/11/05 08:21:58;;;;;;;4.75;1.50;;;14.20;99.90;;;;;;4958810;28;20056;-87
2021/11/05 08:24:27;;;;;;;7.60;2.00;;;14.30;99.90;;;;;;4953051;29;20131;-87
2021/11/05 08:26:54;;;;;;;6.35;1.50;;;14.30;99.90;;;;;;4947526;29;20055;-85
2021/11/05 08:29:20;;;;;;;16.90;1.98;;;14.40;99.90;;;;;;4959894;28;20454;-87
2021/11/05 08:31:46;;;;;;;7.78;2.05;;;14.40;99.90;;;;;;4959229;28;20038;-87
2021/11/05 08:34:13;;;;;;;5.00;1.83;;;14.50;99.90;;;;;;4955515;29;20122;-88
2021/11/05 08:36:39;;;;;;;10.75;2.33;;;14.50;99.90;;;;;;4960951;28;20046;-87
2021/11/05 08:39:06;;;;;;;5.13;1.45;;;14.60;99.90;;;;;;4958090;29;20023;-85
2021/11/05 08:41:34;;;;;;;4.80;1.83;;;14.70;99.90;;;;;;4957358;28;20035;-89
2021/11/05 08:44:00;;;;;;;6.18;1.63;;;14.80;99.90;;;;;;4944824;29;20055;-87
2021/11/05 08:46:29;;;;;;;5.90;1.60;;;14.80;99.90;;;;;;4952872;29;20060;-86
2021/11/05 08:49:00;;;;;;;5.50;1.63;;;14.90;99.90;;;;;;4951506;29;20051;-88
2021/11/05 08:51:26;;;;;;;6.60;1.73;;;15.00;99.90;;;;;;4960854;28;20020;-87
2021/11/05 08:53:52;;;;;;;3.65;1.60;;;15.20;99.90;;;;;;4956849;28;20027;-87
2021/11/05 08:56:18;;;;;;;7.57;1.70;;;15.30;99.90;;;;;;4951098;28;20030;-87
2021/11/05 08:58:46;;;;;;;8.75;1.75;;;15.50;99.90;;;;;;4956037;28;20111;-87
2021/11/05 09:01:13;;;;;;;4.70;1.75;;;15.70;99.90;;;;;;4956881;29;20031;-87
2021/11/05 09:03:39;;;;;;;4.95;1.80;;;15.90;99.90;;;;;;4960780;29;20016;-87
2021/11/05 09:06:05;;;;;;;12.10;2.03;;;16.10;99.90;;;;;;4961543;29;20039;-87
2021/11/05 09:08:33;;;;;;;3.30;1.75;;;16.30;99.90;;;;;;4944182;29;20908;-86
2021/11/05 09:11:00;;;;;;;4.00;1.60;;;16.40;99.90;;;;;;4955943;28;20035;-87
2021/11/05 09:13:31;;;;;;;8.85;1.88;;;16.60;99.90;;;;;;4958364;29;20031;-86
2021/11/05 09:15:58;;;;;;;4.22;1.50;;;16.80;99.90;;;;;;4957890;28;20571;-89
2021/11/05 09:18:25;;;;;;;7.10;2.25;;;16.80;99.90;;;;;;4939970;29;20027;-86
2021/11/05 09:20:51;;;;;;;7.35;1.73;;;16.90;99.90;;;;;;4955796;29;20498;-87
2021/11/05 09:23:17;;;;;;;7.57;1.83;;;17.00;99.90;;;;;;4956823;28;20031;-85
2021/11/05 09:25:43;;;;;;;6.28;2.15;;;16.90;99.90;;;;;;4955986;29;20069;-87
2021/11/05 09:28:12;;;;;;;4.30;1.60;;;16.80;99.90;;;;;;4953921;29;20031;-88
2021/11/05 09:30:38;;;;;;;4.53;1.48;;;16.80;99.90;;;;;;4959130;28;20105;-87
2021/11/05 09:33:04;;;;;;;5.10;1.77;;;16.80;99.90;;;;;;4957893;28;20039;-88
2021/11/05 09:35:33;;;;;;;4.00;1.67;;;16.80;99.90;;;;;;4960063;28;20046;-87
2021/11/05 09:37:59;;;;;;;6.30;2.08;;;16.90;99.90;;;;;;4952437;29;20070;-88
2021/11/05 09:40:27;;;;;;;4.65;1.77;;;16.70;99.90;;;;;;4944598;29;20937;-88
2021/11/05 09:42:53;;;;;;;5.90;1.98;;;16.70;99.90;;;;;;4954992;28;20059;-88
2021/11/05 09:45:22;;;;;;;5.13;1.90;;;16.70;99.90;;;;;;4955771;29;20027;-86
2021/11/05 09:47:48;;;;;;;5.45;1.73;;;16.70;99.90;;;;;;4954147;29;20042;-87
2021/11/05 09:50:20;;;;;;;7.65;1.80;;;16.70;99.90;;;;;;4951651;29;20035;-88
2021/11/05 09:52:46;;;;;;;3.35;1.77;;;16.70;99.90;;;;;;4946955;29;20031;-87
2021/11/05 09:55:15;;;;;;;5.85;2.00;;;16.60;99.90;;;;;;4956289;29;20039;-85
2021/11/05 09:57:41;;;;;;;4.10;2.05;;;16.60;99.90;;;;;;4948633;28;20090;-88
2021/11/05 10:00:13;;;;;;;5.28;2.72;;;16.60;99.90;;;;;;4954336;29;20091;-86
2021/11/05 10:02:41;;;;;;;6.75;2.08;;;16.70;99.90;;;;;;4953831;29;20030;-87
2021/11/05 10:05:07;;;;;;;4.38;2.22;;;16.70;99.90;;;;;;4961675;28;20062;-87
2021/11/05 10:07:46;;;;;;;5.22;2.20;;;16.60;99.90;;;;;;4958019;28;20040;-88
2021/11/05 10:10:12;;;;;;;7.80;2.08;;;16.60;99.90;;;;;;4944701;29;20055;-87
2021/11/05 10:12:50;;;;;;;8.45;2.30;;;16.70;99.90;;;;;;4949606;29;20063;-88
2021/11/05 10:15:19;;;;;;;3.90;2.05;;;16.70;99.90;;;;;;4951654;28;20031;-87
2021/11/05 10:17:45;;;;;;;5.28;2.03;;;16.70;99.90;;;;;;4948957;29;20099;-87
2021/11/05 10:20:13;;;;;;;7.93;2.28;;;16.80;99.90;;;;;;4956307;29;20034;-86
2021/11/05 10:22:53;;;;;;;5.60;1.92;;;16.90;99.90;;;;;;4939572;29;20054;-86
2021/11/05 10:25:37;;;;;;;5.43;2.00;;;16.90;99.90;;;;;;4945070;28;20020;-87
2021/11/05 10:28:25;;;;;;;7.90;1.83;;;16.90;99.90;;;;;;4948556;29;20046;-87
2021/11/05 10:31:06;;;;;;;3.70;1.80;;;16.90;99.90;;;;;;4942752;29;20030;-86
2021/11/05 10:33:41;;;;;;;7.65;2.25;;;17.10;99.40;;;;;;4955168;29;20023;-86
2021/11/05 10:36:13;;;;;;;5.97;1.98;;;17.20;99.00;;;;;;4940683;29;20486;-87
2021/11/05 10:38:54;;;;;;;6.28;1.75;;;17.40;97.80;;;;;;4940397;29;20036;-87
2021/11/05 10:41:23;;;;;;;6.45;2.47;;;17.50;97.80;;;;;;4956309;28;20506;-87
2021/11/05 10:43:52;;;;;;;5.80;2.10;;;17.70;98.60;;;;;;4951466;28;20028;-87
2021/11/05 10:46:33;;;;;;;2.92;1.80;;;17.80;97.50;;;;;;4937141;29;20313;-87
2021/11/05 10:49:21;;;;;;;5.53;2.33;;;17.90;97.40;;;;;;4960131;29;20051;-89
2021/11/05 10:51:47;;;;;;;6.28;2.17;;;17.80;96.20;;;;;;4936582;29;20046;-86
2021/11/05 10:54:13;;;;;;;5.90;2.10;;;17.50;96.60;;;;;;4948853;29;20035;-86
2021/11/05 10:56:43;;;;;;;6.40;2.10;;;17.70;96.20;;;;;;4965308;29;20047;-88
2021/11/05 10:59:11;;;;;;;4.68;1.90;;;17.90;95.60;;;;;;4968794;29;20011;-87
2021/11/05 11:01:44;;;;;;;9.75;1.98;;;18.20;95.20;;;;;;4967284;28;20031;-88
2021/11/05 11:04:12;;;;;;;4.18;1.83;;;18.50;94.40;;;;;;4959053;28;20019;-87
2021/11/05 11:06:47;;;;;;;9.75;2.55;;;18.60;93.90;;;;;;4956662;29;20672;-87
2021/11/05 11:09:17;;;;;;;4.28;1.98;;;18.40;92.70;;;;;;4975090;28;20035;-89
2021/11/05 11:11:48;;;;;;;4.85;1.90;;;18.10;93.10;;;;;;4954783;29;20043;-87
2021/11/05 11:14:22;;;;;;;9.43;2.10;;;18.00;93.80;;;;;;4978765;28;20084;-87
2021/11/05 11:16:49;;;;;;;8.00;2.25;;;18.00;93.60;;;;;;4979536;28;20034;-89
2021/11/05 11:19:20;;;;;;;7.68;1.85;;;18.00;93.50;;;;;;4970852;28;20422;-88
2021/11/05 11:21:47;;;;;;;4.60;1.92;;;17.90;92.60;;;;;;4958314;29;20036;-87
2021/11/05 11:24:16;;;;;;;6.93;2.10;;;17.80;94.00;;;;;;4958212;28;20451;-89
2021/11/05 11:26:50;;;;;;;4.30;2.22;;;17.90;93.00;;;;;;4943618;29;20101;-88
2021/11/05 11:29:18;;;;;;;6.88;2.13;;;17.90;92.20;;;;;;4946695;29;20024;-87
2021/11/05 11:31:45;;;;;;;2.70;1.83;;;18.00;92.80;;;;;;4953429;29;20051;-88
2021/11/05 11:34:14;;;;;;;6.97;2.15;;;18.30;92.30;;;;;;4937451;29;20028;-87
2021/11/05 11:36:43;;;;;;;8.43;2.17;;;18.50;91.30;;;;;;4963738;28;20023;-87
2021/11/05 11:39:16;;;;;;;5.07;1.90;;;18.70;91.50;;;;;;4938453;29;20162;-87
2021/11/05 11:41:42;;;;;;;5.30;1.73;;;18.80;90.90;;;;;;4944760;29;20067;-84
2021/11/05 11:44:12;;;;;;;5.15;2.08;;;18.70;90.70;;;;;;4940377;29;20063;-88
2021/11/05 11:47:12;;;;;;;4.65;1.83;;;18.70;89.70;;;;;;4946117;29;20581;-88
2021/11/05 11:49:38;;;;;;;4.28;2.00;;;18.60;90.00;;;;;;4966122;28;20031;-89
2021/11/05 11:52:19;;;;;;;3.45;1.95;;;18.80;90.50;;;;;;4959023;28;20027;-87
2021/11/05 11:54:54;;;;;;;5.63;1.85;;;18.80;88.80;;;;;;4958750;28;20031;-88
2021/11/05 11:57:30;;;;;;;4.93;2.20;;;18.80;88.70;;;;;;4949776;29;20016;-86
2021/11/05 12:00:20;;;;;;;5.03;1.92;;;18.80;88.50;;;;;;4952851;29;20027;-86
2021/11/05 12:03:11;;;;;;;4.82;1.92;;;18.60;88.60;;;;;;4959339;28;20035;-88
2021/11/05 12:05:39;;;;;;;4.65;2.20;;;18.90;88.10;;;;;;4960586;28;20028;-88
2021/11/05 12:08:27;;;;;;;7.50;2.03;;;19.70;85.80;;;;;;4956811;29;20123;-89
2021/11/05 12:11:13;;;;;;;6.80;1.80;;;21.10;81.90;;;;;;4966799;28;20026;-85
2021/11/05 12:13:41;;;;;;;4.43;1.73;;;23.20;75.60;;;;;;4966104;28;20042;-92
2021/11/05 12:16:15;;;;;;;5.30;2.30;;;24.30;70.10;;;;;;4968340;28;20055;-88
2021/11/05 12:19:10;;;;;;;7.30;1.85;;;24.90;65.80;;;;;;4954979;28;20023;-88
2021/11/05 12:22:10;;;;;;;4.53;1.58;;;24.70;66.30;;;;;;5081366;23;20081;-87
2021/11/05 12:24:40;;;;;;;5.83;2.80;;;26.00;62.10;;;;;;5012751;28;20080;-87
2021/11/05 12:27:25;;;;;;;3.90;1.83;;;26.00;61.50;;;;;;5007539;28;20046;-91
2021/11/05 12:29:57;;;;;;;12.43;2.72;;;26.10;59.50;;;;;;5005561;28;20026;-89
2021/11/05 12:32:29;;;;;;;7.32;2.30;;;27.10;58.00;;;;;;5016772;28;20030;-93
2021/11/05 12:35:15;;;;;;;10.93;2.55;;;27.00;56.80;;;;;;5033148;28;20080;-92
2021/11/05 12:37:53;;;;;;;4.95;2.00;;;27.00;56.70;;;;;;5032795;28;20034;-89
2021/11/05 12:40:45;;;;;;;3.17;1.90;;;26.50;57.40;;;;;;5032302;28;20046;-90
2021/11/05 12:43:13;;;;;;;4.38;1.77;;;26.10;57.20;;;;;;5007254;28;20040;-91
2021/11/05 12:45:43;;;;;;;3.65;1.77;;;25.60;57.80;;;;;;5007141;28;20058;-92
2021/11/05 12:48:10;;;;;;;6.85;1.90;;;25.60;57.50;;;;;;5030467;28;20056;-90
2021/11/05 12:50:36;;;;;;;5.93;2.10;;;25.10;57.70;;;;;;5029867;28;20076;-92
2021/11/05 12:53:07;;;;;;;2.22;1.60;;;24.80;58.00;;;;;;5011335;28;20034;-91